createdAt,value
2018-08-19T00:01:13.124Z,47.07
2018-08-19T00:03:42.774Z,34.60
2018-08-19T00:06:11.860Z,45.10
2018-08-19T00:08:41.624Z,40.10
2018-08-19T00:11:10.802Z,47.27
2018-08-19T00:13:40.996Z,36.53
2018-08-19T00:16:11.065Z,34.53
2018-08-19T00:18:40.155Z,38.00
2018-08-19T00:21:11.065Z,38.07
2018-08-19T00:23:45.201Z,43.23
2018-08-19T00:26:15.534Z,40.10
2018-08-19T00:28:44.733Z,44.30
2018-08-19T00:31:14.211Z,53.90
2018-08-19T00:33:43.359Z,44.30
2018-08-19T00:36:25.991Z,55.33
2018-08-19T00:38:56.526Z,56.50
2018-08-19T00:41:25.750Z,50.53
2018-08-19T00:43:54.930Z,45.50
2018-08-19T00:46:27.477Z,51.07
2018-08-19T00:48:56.704Z,54.70
2018-08-19T00:51:25.811Z,66.97
2018-08-19T00:53:55.421Z,57.10
2018-08-19T00:56:24.584Z,45.13
2018-08-19T00:58:53.549Z,49.07
2018-08-19T01:01:31.891Z,56.03
2018-08-19T01:04:00.816Z,46.63
2018-08-19T01:06:29.881Z,60.30
2018-08-19T01:08:58.905Z,55.07
2018-08-19T01:11:31.412Z,56.80
2018-08-19T01:14:00.471Z,45.53
2018-08-19T01:16:29.479Z,52.37
2018-08-19T01:19:02.277Z,63.03
2018-08-19T01:21:32.998Z,50.70
2018-08-19T01:24:05.025Z,41.30
2018-08-19T01:26:35.141Z,50.70
2018-08-19T01:29:04.594Z,47.77
2018-08-19T01:31:33.634Z,46.00
2018-08-19T01:34:05.755Z,34.33
2018-08-19T01:36:34.701Z,38.27
2018-08-19T01:39:03.951Z,39.37
2018-08-19T01:41:33.140Z,38.07
2018-08-19T01:44:12.275Z,45.90
2018-08-19T01:46:43.384Z,38.80
2018-08-19T01:49:12.466Z,40.77
2018-08-19T01:51:42.682Z,37.73
2018-08-19T01:54:16.753Z,51.83
2018-08-19T01:56:45.824Z,36.83
2018-08-19T01:59:15.191Z,42.07
2018-08-19T02:01:50.412Z,37.17
2018-08-19T02:04:19.857Z,57.03
2018-08-19T02:06:48.929Z,54.23
2018-08-19T02:09:18.837Z,39.37
2018-08-19T02:11:50.037Z,50.67
2018-08-19T02:14:19.810Z,42.10
2018-08-19T02:16:49.579Z,40.70
2018-08-19T02:19:18.660Z,47.87
2018-08-19T02:21:48.705Z,61.93
2018-08-19T02:24:18.008Z,48.97
2018-08-19T02:26:47.085Z,44.87
2018-08-19T02:29:34.016Z,55.43
2018-08-19T02:32:12.124Z,51.17
2018-08-19T02:34:43.172Z,55.70
2018-08-19T02:37:13.247Z,40.10
2018-08-19T02:39:44.038Z,52.07
2018-08-19T02:42:25.165Z,38.43
2018-08-19T02:45:00.225Z,40.57
2018-08-19T02:47:29.364Z,47.03
2018-08-19T02:49:58.395Z,45.50
2018-08-19T02:52:29.553Z,39.40
2018-08-19T02:54:59.971Z,53.47
2018-08-19T02:57:29.985Z,59.20
2018-08-19T03:00:00.053Z,47.43
2018-08-19T03:02:32.693Z,48.80
2018-08-19T03:05:03.376Z,43.57
2018-08-19T03:07:32.936Z,33.27
2018-08-19T03:10:07.212Z,33.67
2018-08-19T03:12:36.324Z,36.60
2018-08-19T03:15:06.045Z,111.63
2018-08-19T03:17:35.125Z,41.93
2018-08-19T03:20:04.878Z,47.53
2018-08-19T03:22:33.909Z,45.47
2018-08-19T03:25:03.220Z,41.77
2018-08-19T03:27:33.520Z,36.60
2018-08-19T03:30:05.050Z,49.67
2018-08-19T03:32:34.121Z,51.87
2018-08-19T03:35:13.135Z,43.60
2018-08-19T03:37:42.412Z,50.20
2018-08-19T03:40:11.360Z,52.17
2018-08-19T03:42:40.466Z,44.30
2018-08-19T03:45:13.548Z,46.73
2018-08-19T03:47:42.686Z,36.83
2018-08-19T03:50:16.711Z,61.77
2018-08-19T03:52:46.020Z,43.07
2018-08-19T03:55:19.065Z,41.80
2018-08-19T03:57:48.673Z,61.07
2018-08-19T04:00:18.832Z,44.37
2018-08-19T04:02:47.824Z,43.87
2018-08-19T04:05:16.824Z,48.80
2018-08-19T04:07:45.787Z,57.30
2018-08-19T04:10:14.681Z,47.67
2018-08-19T04:12:44.005Z,42.63
2018-08-19T04:15:13.030Z,37.23
2018-08-19T04:17:41.954Z,50.27
2018-08-19T04:20:10.917Z,51.40
2018-08-19T04:22:39.981Z,37.87
2018-08-19T04:25:08.969Z,43.60
2018-08-19T04:27:38.005Z,53.87
2018-08-19T04:30:06.955Z,44.27
2018-08-19T04:32:36.065Z,44.53
2018-08-19T04:35:05.066Z,46.10
2018-08-19T04:37:34.040Z,46.83
2018-08-19T04:40:03.046Z,47.80
2018-08-19T04:42:32.236Z,45.90
2018-08-19T04:45:02.020Z,51.37
2018-08-19T04:47:32.765Z,48.93
2018-08-19T04:50:01.807Z,42.73
2018-08-19T04:52:33.329Z,43.13
2018-08-19T04:55:02.440Z,60.53
2018-08-19T04:57:31.511Z,46.67
2018-08-19T05:00:00.513Z,44.37
2018-08-19T05:02:29.417Z,65.03
2018-08-19T05:04:58.508Z,35.27
2018-08-19T05:07:27.444Z,58.07
2018-08-19T05:09:56.564Z,50.93
2018-08-19T05:12:25.446Z,41.23
2018-08-19T05:14:54.370Z,40.63
2018-08-19T05:17:23.476Z,62.80
2018-08-19T05:19:56.632Z,38.83
2018-08-19T05:22:25.610Z,37.73
2018-08-19T05:24:54.604Z,38.47
2018-08-19T05:27:23.590Z,39.33
2018-08-19T05:29:52.634Z,56.47
2018-08-19T05:32:21.922Z,36.60
2018-08-19T05:34:50.961Z,40.47
2018-08-19T05:37:19.977Z,39.70
2018-08-19T05:39:57.697Z,35.50
2018-08-19T05:42:26.714Z,34.87
2018-08-19T05:44:55.866Z,67.43
2018-08-19T05:47:24.862Z,40.03
2018-08-19T05:49:54.010Z,40.10
2018-08-19T05:52:23.878Z,31.80
2018-08-19T05:55:00.091Z,34.70
2018-08-19T05:57:35.247Z,30.33
2018-08-19T06:00:09.429Z,35.13
2018-08-19T06:02:44.461Z,30.83
2018-08-19T06:05:13.606Z,30.00
2018-08-19T06:07:42.786Z,33.90
2018-08-19T06:10:11.941Z,40.00
2018-08-19T06:12:40.825Z,23.10
2018-08-19T06:15:10.011Z,31.23
2018-08-19T06:17:38.963Z,23.30
2018-08-19T06:20:08.359Z,23.93
2018-08-19T06:22:40.315Z,27.97
2018-08-19T06:25:10.288Z,27.47
2018-08-19T06:27:45.097Z,23.53
2018-08-19T06:30:15.089Z,32.77
2018-08-19T06:32:44.192Z,22.23
2018-08-19T06:35:13.253Z,29.20
2018-08-19T06:37:42.226Z,30.37
2018-08-19T06:40:12.767Z,22.17
2018-08-19T06:42:41.871Z,17.93
2018-08-19T06:45:11.792Z,18.33
2018-08-19T06:47:40.903Z,22.33
2018-08-19T06:50:22.163Z,28.40
2018-08-19T06:52:52.276Z,17.43
2018-08-19T06:55:21.609Z,17.00
2018-08-19T06:57:51.081Z,17.80
2018-08-19T07:00:34.516Z,24.07
2018-08-19T07:03:05.371Z,13.97
2018-08-19T07:05:35.130Z,19.03
2018-08-19T07:08:04.296Z,17.97
2018-08-19T07:10:36.712Z,15.83
2018-08-19T07:13:08.530Z,17.03
2018-08-19T07:15:38.825Z,18.57
2018-08-19T07:18:09.247Z,26.93
2018-08-19T07:20:38.954Z,18.03
2018-08-19T07:23:08.297Z,15.00
2018-08-19T07:25:39.913Z,16.83
2018-08-19T07:28:10.257Z,21.27
2018-08-19T07:30:39.715Z,26.17
2018-08-19T07:33:08.973Z,13.20
2018-08-19T07:35:38.151Z,15.00
2018-08-19T07:38:07.114Z,10.33
2018-08-19T07:40:36.131Z,12.13
2018-08-19T07:43:05.324Z,11.07
2018-08-19T07:45:34.493Z,12.50
2018-08-19T07:48:03.602Z,13.40
2018-08-19T07:50:32.772Z,14.23
2018-08-19T07:53:01.845Z,11.20
2018-08-19T07:55:30.877Z,14.40
2018-08-19T07:57:59.863Z,8.50
2018-08-19T08:00:34.102Z,7.73
2018-08-19T08:03:03.328Z,8.30
2018-08-19T08:05:38.305Z,6.57
2018-08-19T08:08:08.749Z,6.07
2018-08-19T08:10:38.373Z,6.43
2018-08-19T08:13:09.491Z,7.90
2018-08-19T08:15:43.669Z,6.97
2018-08-19T08:18:12.946Z,7.67
2018-08-19T08:20:42.046Z,6.83
2018-08-19T08:23:27.883Z,6.83
2018-08-19T08:25:57.043Z,8.83
2018-08-19T08:28:26.366Z,7.77
2018-08-19T08:30:55.519Z,12.90
2018-08-19T08:33:24.571Z,8.83
2018-08-19T08:35:56.291Z,7.07
2018-08-19T08:38:25.446Z,7.77
2018-08-19T08:40:55.002Z,7.17
2018-08-19T08:43:24.113Z,10.10
2018-08-19T08:45:55.536Z,5.97
2018-08-19T08:48:24.997Z,5.53
2018-08-19T08:50:54.063Z,6.20
2018-08-19T08:53:25.832Z,5.27
2018-08-19T08:55:54.920Z,5.60
2018-08-19T08:58:24.027Z,6.07
2018-08-19T09:00:53.083Z,7.90
2018-08-19T09:03:22.248Z,11.40
2018-08-19T09:05:51.312Z,8.03
2018-08-19T09:08:20.366Z,6.37
2018-08-19T09:10:49.582Z,8.83
2018-08-19T09:13:18.612Z,5.97
2018-08-19T09:15:47.914Z,7.10
2018-08-19T09:18:16.964Z,8.27
2018-08-19T09:20:45.972Z,12.03
2018-08-19T09:23:15.323Z,9.50
2018-08-19T09:25:44.355Z,7.47
2018-08-19T09:28:13.351Z,8.30
2018-08-19T09:30:43.565Z,16.63
2018-08-19T09:33:13.352Z,7.23
2018-08-19T09:35:43.422Z,15.60
2018-08-19T09:38:15.239Z,7.40
2018-08-19T09:40:45.157Z,7.87
2018-08-19T09:43:14.412Z,7.90
2018-08-19T09:45:44.021Z,8.47
2018-08-19T09:48:13.765Z,8.30
2018-08-19T09:50:43.571Z,7.57
2018-08-19T09:53:12.655Z,12.50
2018-08-19T09:55:43.113Z,10.20
2018-08-19T09:58:19.325Z,14.27
2018-08-19T10:00:53.415Z,13.33
2018-08-19T10:03:22.498Z,7.27
2018-08-19T10:07:19.994Z,25.23
2018-08-19T10:09:49.350Z,9.47
2018-08-19T10:12:18.493Z,24.07
2018-08-19T10:14:47.569Z,8.47
2018-08-19T10:17:16.653Z,11.20
2018-08-19T10:19:45.643Z,15.13
2018-08-19T10:22:14.724Z,9.10
2018-08-19T10:24:43.769Z,12.63
2018-08-19T10:27:12.806Z,9.60
2018-08-19T10:29:41.797Z,8.50
2018-08-19T10:32:10.882Z,8.37
2018-08-19T10:34:39.919Z,7.20
2018-08-19T10:37:09.056Z,7.10
2018-08-19T10:39:38.075Z,7.90
2018-08-19T10:42:18.886Z,7.77
2018-08-19T10:44:49.654Z,10.27
2018-08-19T10:47:19.452Z,6.70
2018-08-19T10:49:54.901Z,7.10
2018-08-19T10:52:28.516Z,9.33
2018-08-19T10:54:58.933Z,7.30
2018-08-19T10:57:27.867Z,5.90
2018-08-19T10:59:58.364Z,7.63
2018-08-19T11:02:27.324Z,7.87
2018-08-19T11:04:58.617Z,8.40
2018-08-19T11:07:27.596Z,8.47
2018-08-19T11:10:20.730Z,12.90
2018-08-19T11:12:52.309Z,9.27
2018-08-19T11:15:32.633Z,11.00
2018-08-19T11:18:17.494Z,8.70
2018-08-19T11:20:49.684Z,17.13
2018-08-19T11:23:22.660Z,11.63
2018-08-19T11:25:52.557Z,9.07
2018-08-19T11:28:36.201Z,9.13
2018-08-19T11:31:05.570Z,9.00
2018-08-19T11:33:40.791Z,12.70
2018-08-19T11:36:10.873Z,12.27
2018-08-19T11:38:40.946Z,9.97
2018-08-19T11:41:10.980Z,13.93
2018-08-19T11:43:43.095Z,10.33
2018-08-19T11:46:12.211Z,11.40
2018-08-19T11:48:41.875Z,10.57
2018-08-19T11:51:11.117Z,11.43
2018-08-19T11:53:40.367Z,10.90
2018-08-19T11:56:09.912Z,13.00
2018-08-19T11:58:46.949Z,19.40
2018-08-19T12:01:17.385Z,16.23
2018-08-19T12:04:00.227Z,8.80
2018-08-19T12:06:31.829Z,13.83
2018-08-19T12:09:02.350Z,9.80
2018-08-19T12:11:33.126Z,10.13
2018-08-19T12:14:06.394Z,11.80
2018-08-19T12:16:44.285Z,11.47
2018-08-19T12:19:18.486Z,12.60
2018-08-19T12:21:58.639Z,11.33
2018-08-19T12:24:33.926Z,16.27
2018-08-19T12:27:04.198Z,10.87
2018-08-19T12:29:34.454Z,12.73
2018-08-19T12:32:14.100Z,12.37
2018-08-19T12:34:45.106Z,10.47
2018-08-19T12:37:15.442Z,8.97
2018-08-19T12:39:44.517Z,10.73
2018-08-19T12:42:13.725Z,10.20
2018-08-19T12:44:42.932Z,12.03
2018-08-19T12:47:17.641Z,8.07
2018-08-19T12:49:49.502Z,9.80
2018-08-19T12:52:20.536Z,10.43
2018-08-19T12:54:54.787Z,14.40
2018-08-19T12:57:24.065Z,8.13
2018-08-19T12:59:53.988Z,9.30
2018-08-19T13:02:26.244Z,12.57
2018-08-19T13:04:55.433Z,10.50
2018-08-19T13:07:24.466Z,16.33
2018-08-19T13:09:53.542Z,9.70
2018-08-19T13:12:22.630Z,14.83
2018-08-19T13:14:51.736Z,18.83
2018-08-19T13:17:20.805Z,11.93
2018-08-19T13:19:56.031Z,12.50
2018-08-19T13:22:25.545Z,7.93
2018-08-19T13:24:54.655Z,24.53
2018-08-19T13:27:23.650Z,10.17
2018-08-19T13:29:52.732Z,11.17
2018-08-19T13:32:21.814Z,9.00
2018-08-19T13:34:50.910Z,9.67
2018-08-19T13:37:19.882Z,7.93
2018-08-19T13:39:49.282Z,12.43
2018-08-19T13:42:18.231Z,9.87
2018-08-19T13:44:47.391Z,9.70
2018-08-19T13:47:16.516Z,9.30
2018-08-19T13:49:45.443Z,10.47
2018-08-19T13:52:14.722Z,10.20
2018-08-19T13:54:55.305Z,9.97
2018-08-19T13:57:24.407Z,17.70
2018-08-19T13:59:53.369Z,11.23
2018-08-19T14:02:22.413Z,9.73
2018-08-19T14:04:51.407Z,11.87
2018-08-19T14:07:20.569Z,10.40
2018-08-19T14:09:49.535Z,9.80
2018-08-19T14:12:18.623Z,10.60
2018-08-19T14:14:47.713Z,11.80
2018-08-19T14:17:16.877Z,11.03
2018-08-19T14:19:45.867Z,12.33
2018-08-19T14:22:14.960Z,9.60
2018-08-19T14:24:43.996Z,9.33
2018-08-19T14:27:13.574Z,9.20
2018-08-19T14:29:43.535Z,10.58
2018-08-19T14:32:27.611Z,10.98
2018-08-19T14:34:57.074Z,8.30
2018-08-19T14:37:27.161Z,10.20
2018-08-19T14:39:57.226Z,9.17
2018-08-19T14:42:26.358Z,8.23
2018-08-19T14:44:56.418Z,8.83
2018-08-19T14:47:25.662Z,8.37
2018-08-19T14:49:55.636Z,8.00
2018-08-19T14:52:24.718Z,8.37
2018-08-19T14:54:53.771Z,13.57
2018-08-19T14:57:22.958Z,19.20
2018-08-19T14:59:52.387Z,8.37
2018-08-19T15:02:21.950Z,9.47
2018-08-19T15:04:50.910Z,8.73
2018-08-19T15:07:20.349Z,9.70
2018-08-19T15:09:51.068Z,9.83
2018-08-19T15:12:21.253Z,15.63
2018-08-19T15:14:51.194Z,8.03
2018-08-19T15:17:20.222Z,8.05
2018-08-19T15:19:51.844Z,12.70
2018-08-19T15:22:21.097Z,8.15
2018-08-19T15:24:50.941Z,8.28
2018-08-19T15:27:20.089Z,7.45
2018-08-19T15:29:52.137Z,7.17
2018-08-19T15:32:23.478Z,9.25
2018-08-19T15:34:52.599Z,10.10
2018-08-19T15:37:21.661Z,8.43
2018-08-19T15:39:50.776Z,10.80
2018-08-19T15:42:19.943Z,9.17
2018-08-19T15:44:49.554Z,10.63
2018-08-19T15:47:18.650Z,8.13
2018-08-19T15:49:47.896Z,9.83
2018-08-19T15:52:17.025Z,7.60
2018-08-19T15:54:53.026Z,11.27
2018-08-19T15:57:22.065Z,8.60
2018-08-19T15:59:51.416Z,8.97
2018-08-19T16:02:20.498Z,10.23
2018-08-19T16:04:50.521Z,14.40
2018-08-19T16:07:19.926Z,7.33
2018-08-19T16:09:49.119Z,11.17
2018-08-19T16:12:18.182Z,8.90
2018-08-19T16:14:47.242Z,11.30
2018-08-19T16:17:16.860Z,17.17
2018-08-19T16:19:45.872Z,7.97
2018-08-19T16:22:15.193Z,20.90
2018-08-19T16:24:44.208Z,20.80
2018-08-19T16:27:13.722Z,8.43
2018-08-19T16:29:42.789Z,8.43
2018-08-19T16:32:11.893Z,9.03
2018-08-19T16:34:40.985Z,10.27
2018-08-19T16:37:09.901Z,8.00
2018-08-19T16:39:39.061Z,14.50
2018-08-19T16:42:08.405Z,8.73
2018-08-19T16:44:37.465Z,9.10
2018-08-19T16:47:06.509Z,12.33
2018-08-19T16:49:35.558Z,9.23
2018-08-19T16:52:04.663Z,7.53
2018-08-19T16:54:33.790Z,8.37
2018-08-19T16:57:02.917Z,8.33
2018-08-19T16:59:32.031Z,11.10
2018-08-19T17:02:01.128Z,8.70
2018-08-19T17:04:30.186Z,12.47
2018-08-19T17:06:59.509Z,8.53
2018-08-19T17:09:28.624Z,8.30
2018-08-19T17:11:57.894Z,10.50
2018-08-19T17:14:26.985Z,11.43
2018-08-19T17:16:55.941Z,10.20
2018-08-19T17:19:24.917Z,9.27
2018-08-19T17:21:53.906Z,17.63
2018-08-19T17:24:22.895Z,8.13
2018-08-19T17:26:57.318Z,8.07
2018-08-19T17:29:26.499Z,8.67
2018-08-19T17:31:55.481Z,10.43
2018-08-19T17:34:25.635Z,10.03
2018-08-19T17:36:54.747Z,12.10
2018-08-19T17:39:24.376Z,8.70
2018-08-19T17:41:54.084Z,9.90
2018-08-19T17:44:23.611Z,8.13
2018-08-19T17:46:54.909Z,12.60
2018-08-19T17:49:26.336Z,8.10
2018-08-19T17:51:56.285Z,17.00
2018-08-19T17:54:26.429Z,8.47
2018-08-19T17:56:56.349Z,8.33
2018-08-19T17:59:25.428Z,8.10
2018-08-19T18:01:54.521Z,10.17
2018-08-19T18:04:24.291Z,11.70
2018-08-19T18:06:53.282Z,8.33
2018-08-19T18:09:23.053Z,7.83
2018-08-19T18:12:01.069Z,7.83
2018-08-19T18:14:31.466Z,9.33
2018-08-19T18:17:00.455Z,8.17
2018-08-19T18:19:33.848Z,7.40
2018-08-19T18:22:02.850Z,16.17
2018-08-19T18:24:32.016Z,8.33
2018-08-19T18:27:01.162Z,8.47
2018-08-19T18:29:41.601Z,8.37
2018-08-19T18:32:10.712Z,8.53
2018-08-19T18:34:40.276Z,12.80
2018-08-19T18:37:09.227Z,19.43
2018-08-19T18:39:38.421Z,8.77
2018-08-19T18:42:07.570Z,7.30
2018-08-19T18:44:36.637Z,14.00
2018-08-19T18:47:06.028Z,10.83
2018-08-19T18:49:35.225Z,9.00
2018-08-19T18:52:09.369Z,7.43
2018-08-19T18:54:40.514Z,8.50
2018-08-19T18:57:09.562Z,9.67
2018-08-19T18:59:43.581Z,9.73
2018-08-19T19:02:12.676Z,9.13
2018-08-19T19:04:41.666Z,12.10
2018-08-19T19:07:10.699Z,8.77
2018-08-19T19:09:45.047Z,10.23
2018-08-19T19:12:14.119Z,7.60
2018-08-19T19:14:43.159Z,13.80
2018-08-19T19:17:12.123Z,12.60
2018-08-19T19:19:46.277Z,20.83
2018-08-19T19:22:15.370Z,15.30
2018-08-19T19:24:44.446Z,7.97
2018-08-19T19:27:13.690Z,7.97
2018-08-19T19:29:44.496Z,8.00
2018-08-19T19:32:18.226Z,31.87
2018-08-19T19:34:47.213Z,10.40
2018-08-19T19:37:16.256Z,10.43
2018-08-19T19:39:47.250Z,14.63
2018-08-19T19:42:16.443Z,9.40
2018-08-19T19:44:45.347Z,10.13
2018-08-19T19:47:14.557Z,10.20
2018-08-19T19:49:48.814Z,12.40
2018-08-19T19:52:17.867Z,8.17
2018-08-19T19:54:46.936Z,5.90
2018-08-19T19:57:15.969Z,7.47
2018-08-19T19:59:44.933Z,13.83
2018-08-19T20:02:23.291Z,8.67
2018-08-19T20:04:53.465Z,11.70
2018-08-19T20:07:22.477Z,9.30
2018-08-19T20:09:52.658Z,6.97
2018-08-19T20:12:25.986Z,7.77
2018-08-19T20:14:54.965Z,19.50
2018-08-19T20:17:24.100Z,6.60
2018-08-19T20:19:53.190Z,6.47
2018-08-19T20:22:22.273Z,6.70
2018-08-19T20:24:51.392Z,5.80
2018-08-19T20:27:20.532Z,6.93
2018-08-19T20:29:52.749Z,6.97
2018-08-19T20:32:21.877Z,19.57
2018-08-19T20:34:52.337Z,6.73
2018-08-19T20:37:24.111Z,6.77
2018-08-19T20:39:53.653Z,8.63
2018-08-19T20:42:22.794Z,7.57
2018-08-19T20:44:51.921Z,10.53
2018-08-19T20:47:21.037Z,7.77
2018-08-19T20:49:50.572Z,12.23
2018-08-19T20:52:32.942Z,7.20
2018-08-19T20:55:02.022Z,8.77
2018-08-19T20:57:31.182Z,7.30
2018-08-19T21:00:00.339Z,8.43
2018-08-19T21:02:29.379Z,7.93
2018-08-19T21:04:58.455Z,45.37
2018-08-19T21:07:27.487Z,7.83
2018-08-19T21:09:56.496Z,14.10
2018-08-19T21:12:25.609Z,9.20
2018-08-19T21:14:54.662Z,16.83
2018-08-19T21:17:23.671Z,6.67
2018-08-19T21:19:52.790Z,7.60
2018-08-19T21:22:22.098Z,8.00
2018-08-19T21:24:51.136Z,11.63
2018-08-19T21:27:20.271Z,10.40
2018-08-19T21:29:49.392Z,14.47
2018-08-19T21:32:18.487Z,12.70
2018-08-19T21:34:47.513Z,15.90
2018-08-19T21:37:21.725Z,8.93
2018-08-19T21:39:50.823Z,9.50
2018-08-19T21:42:19.969Z,9.23
2018-08-19T21:44:48.928Z,8.57
2018-08-19T21:47:17.969Z,9.63
2018-08-19T21:49:51.053Z,8.00
2018-08-19T21:52:20.184Z,10.00
2018-08-19T21:54:49.305Z,8.73
2018-08-19T21:57:18.389Z,10.47
2018-08-19T21:59:47.382Z,14.67
2018-08-19T22:02:21.558Z,10.43
2018-08-19T22:04:50.621Z,10.33
2018-08-19T22:07:19.690Z,10.03
2018-08-19T22:09:48.770Z,14.50
2018-08-19T22:12:17.913Z,22.23
2018-08-19T22:14:47.016Z,10.10
2018-08-19T22:17:16.198Z,9.87
2018-08-19T22:19:45.448Z,12.37
2018-08-19T22:22:14.519Z,11.20
2018-08-19T22:24:43.675Z,18.70
2018-08-19T22:27:17.427Z,11.80
2018-08-19T22:29:46.461Z,10.17
2018-08-19T22:32:15.471Z,11.50
2018-08-19T22:34:44.626Z,11.43
2018-08-19T22:37:13.826Z,9.67
2018-08-19T22:39:43.229Z,11.23
2018-08-19T22:42:12.301Z,13.53
2018-08-19T22:44:41.372Z,11.00
2018-08-19T22:47:10.380Z,10.37
2018-08-19T22:49:39.444Z,16.00
2018-08-19T22:52:24.710Z,11.30
2018-08-19T22:54:56.115Z,10.57
2018-08-19T22:57:25.617Z,8.53
2018-08-19T22:59:54.849Z,13.33
2018-08-19T23:02:24.151Z,14.33
2018-08-19T23:04:53.181Z,12.27
2018-08-19T23:07:22.216Z,12.07
2018-08-19T23:09:51.349Z,11.90
2018-08-19T23:12:20.309Z,14.10
2018-08-19T23:15:00.190Z,12.50
2018-08-19T23:17:29.197Z,18.27
2018-08-19T23:19:58.194Z,19.73
2018-08-19T23:22:27.321Z,18.03
2018-08-19T23:24:56.385Z,16.30
2018-08-19T23:27:25.337Z,12.43
2018-08-19T23:29:54.502Z,16.33
2018-08-19T23:32:23.411Z,15.03
2018-08-19T23:34:52.369Z,23.47
2018-08-19T23:37:21.291Z,15.03
2018-08-19T23:39:51.480Z,18.57
2018-08-19T23:42:20.589Z,17.07
2018-08-19T23:44:49.672Z,25.63
2018-08-19T23:47:18.591Z,12.57
2018-08-19T23:49:47.658Z,19.40
2018-08-19T23:52:16.683Z,19.30
2018-08-19T23:54:45.818Z,13.17
2018-08-19T23:57:14.911Z,17.70
2018-08-19T23:59:46.384Z,11.67
